Time;durP1;ratioP1;P1;durP2;ratioP2;P2;SDS_P1;SDS_P2;PMS_P1;PMS_P2;Temp;Humidity;BMP_temperature;BMP_pressure;BME280_temperature;BME280_humidity;BME280_pressure;Samples;Min_cycle;Max_cycle;Signal;HPM_P1;HPM_P2
2022/04/05 00:00:37;;;;;;;;;;;;;;;;;;4214720;28;1634;-60
2022/04/05 00:02:58;;;;;;;;;;;;;;;;;;4216884;28;973;-61
2022/04/05 00:05:19;;;;;;;;;;;;;;;;;;4216491;28;1483;-60
2022/04/05 00:07:40;;;;;;;;;;;;;;;;;;4217446;28;990;-60
2022/04/05 00:10:01;;;;;;;;;;;;;;;;;;4217968;28;864;-60
2022/04/05 00:12:21;;;;;;;;;;;;;;;;;;4200518;28;1993;-60
2022/04/05 00:14:42;;;;;;;;;;;;;;;;;;4200591;28;1202;-62
2022/04/05 00:17:03;;;;;;;;;;;;;;;;;;4200541;28;990;-60
2022/04/05 00:19:25;;;;;;;;;;;;;;;;;;4200809;28;872;-59
2022/04/05 00:21:46;;;;;;;;;;;;;;;;;;4201062;28;977;-59
2022/04/05 00:24:07;;;;;;;;;;;;;;;;;;4199659;28;967;-62
2022/04/05 00:26:28;;;;;;;;;;;;;;;;;;4206201;28;1664;-60
2022/04/05 00:28:50;;;;;;;;;;;;;;;;;;4217501;28;1029;-60
2022/04/05 00:31:11;;;;;;;;;;;;;;;;;;4217233;28;1043;-61
2022/04/05 00:33:33;;;;;;;;;;;;;;;;;;4217296;28;1913;-60
2022/04/05 00:35:53;;;;;;;;;;;;;;;;;;4217219;28;920;-60
2022/04/05 00:38:14;;;;;;;;;;;;;;;;;;4217151;28;940;-60
2022/04/05 00:40:35;;;;;;;;;;;;;;;;;;4217035;28;1035;-60
2022/04/05 00:42:56;;;;;;;;;;;;;;;;;;4217009;28;1001;-60
2022/04/05 00:45:16;;;;;;;;;;;;;;;;;;4217300;28;1594;-60
2022/04/05 00:47:38;;;;;;;;;;;;;;;;;;4217065;28;961;-60
2022/04/05 00:49:58;;;;;;;;;;;;;;;;;;4216987;28;1060;-60
2022/04/05 00:52:19;;;;;;;;;;;;;;;;;;4216929;28;1988;-60
2022/04/05 00:54:40;;;;;;;;;;;;;;;;;;4216453;28;1040;-60
2022/04/05 00:57:01;;;;;;;;;;;;;;;;;;4216597;28;950;-60
2022/04/05 00:59:22;;;;;;;;;;;;;;;;;;4214093;28;989;-60
2022/04/05 01:01:46;;;;;;;;;;;;;;;;;;4218622;28;2219;-60
2022/04/05 01:04:07;;;;;;;;;;;;;;;;;;4216000;28;1107;-60
2022/04/05 01:06:28;;;;;;;;;;;;;;;;;;4219155;28;1076;-60
2022/04/05 01:08:49;;;;;;;;;;;;;;;;;;4219455;28;1038;-60
2022/04/05 01:11:10;;;;;;;;;;;;;;;;;;4204078;28;961;-60
2022/04/05 01:13:32;;;;;;;;;;;;;;;;;;4218532;28;1913;-60
2022/04/05 01:15:53;;;;;;;;;;;;;;;;;;4219107;28;1230;-60
2022/04/05 01:18:14;;;;;;;;;;;;;;;;;;4219554;28;1016;-60
2022/04/05 01:20:36;;;;;;;;;;;;;;;;;;4218822;28;1229;-60
2022/04/05 01:22:57;;;;;;;;;;;;;;;;;;4219106;28;1013;-59
2022/04/05 01:25:17;;;;;;;;;;;;;;;;;;4219269;28;1269;-60
2022/04/05 01:27:38;;;;;;;;;;;;;;;;;;4218454;28;1239;-60
2022/04/05 01:29:59;;;;;;;;;;;;;;;;;;4219403;28;956;-60
2022/04/05 01:32:19;;;;;;;;;;;;;;;;;;4218291;28;951;-59
2022/04/05 01:34:40;;;;;;;;;;;;;;;;;;4218979;28;989;-60
2022/04/05 01:37:01;;;;;;;;;;;;;;;;;;4217840;28;1128;-59
2022/04/05 01:39:21;;;;;;;;;;;;;;;;;;4218650;28;1302;-62
2022/04/05 01:41:42;;;;;;;;;;;;;;;;;;4218928;28;955;-60
2022/04/05 01:44:03;;;;;;;;;;;;;;;;;;4218892;28;1280;-60
2022/04/05 01:46:23;;;;;;;;;;;;;;;;;;4218839;28;1103;-60
2022/04/05 01:48:44;;;;;;;;;;;;;;;;;;4218792;28;1202;-60
2022/04/05 01:51:05;;;;;;;;;;;;;;;;;;4218331;28;922;-60
2022/04/05 01:53:25;;;;;;;;;;;;;;;;;;4217576;28;1918;-60
2022/04/05 01:55:46;;;;;;;;;;;;;;;;;;4218866;28;950;-60
2022/04/05 01:58:07;;;;;;;;;;;;;;;;;;4219084;28;986;-60
2022/04/05 02:00:28;;;;;;;;;;;;;;;;;;4216404;28;952;-60
2022/04/05 02:02:48;;;;;;;;;;;;;;;;;;4218557;28;1195;-60
2022/04/05 02:05:10;;;;;;;;;;;;;;;;;;4217347;28;1014;-60
2022/04/05 02:07:31;;;;;;;;;;;;;;;;;;4218753;28;940;-60
2022/04/05 02:09:52;;;;;;;;;;;;;;;;;;4218769;28;1124;-60
2022/04/05 02:12:13;;;;;;;;;;;;;;;;;;4217607;28;838;-59
2022/04/05 02:14:43;;;;;;;;;;;;;;;;;;4217977;28;1988;-60
2022/04/05 02:17:09;;;;;;;;;;;;;;;;;;4202736;28;873;-60
2022/04/05 02:19:31;;;;;;;;;;;;;;;;;;4202602;28;998;-60
2022/04/05 02:21:52;;;;;;;;;;;;;;;;;;4218770;28;939;-60
2022/04/05 02:24:13;;;;;;;;;;;;;;;;;;4217382;28;1253;-60
2022/04/05 02:26:35;;;;;;;;;;;;;;;;;;4219731;28;929;-60
2022/04/05 02:28:55;;;;;;;;;;;;;;;;;;4219663;28;858;-62
2022/04/05 02:31:20;;;;;;;;;;;;;;;;;;4220067;28;842;-60
2022/04/05 02:33:41;;;;;;;;;;;;;;;;;;4219964;28;1987;-59
2022/04/05 02:36:08;;;;;;;;;;;;;;;;;;4219825;28;1125;-59
2022/04/05 02:38:29;;;;;;;;;;;;;;;;;;4219665;28;1008;-60
2022/04/05 02:40:52;;;;;;;;;;;;;;;;;;4219910;28;1035;-62
2022/04/05 02:43:12;;;;;;;;;;;;;;;;;;4219184;28;1140;-59
2022/04/05 02:45:33;;;;;;;;;;;;;;;;;;4219309;28;1103;-60
2022/04/05 02:47:53;;;;;;;;;;;;;;;;;;4219084;28;1191;-61
2022/04/05 02:50:17;;;;;;;;;;;;;;;;;;4218844;28;832;-60
2022/04/05 02:52:38;;;;;;;;;;;;;;;;;;4220375;28;989;-60
2022/04/05 02:55:00;;;;;;;;;;;;;;;;;;4218890;28;1988;-59
2022/04/05 02:57:21;;;;;;;;;;;;;;;;;;4219231;28;972;-60
2022/04/05 02:59:45;;;;;;;;;;;;;;;;;;4219076;28;957;-60
2022/04/05 03:02:06;;;;;;;;;;;;;;;;;;4219277;28;1200;-60
2022/04/05 03:04:27;;;;;;;;;;;;;;;;;;4220102;28;1452;-62
2022/04/05 03:06:49;;;;;;;;;;;;;;;;;;4218892;28;1005;-59
2022/04/05 03:09:09;;;;;;;;;;;;;;;;;;4218834;28;918;-60
2022/04/05 03:11:31;;;;;;;;;;;;;;;;;;4219349;28;845;-60
2022/04/05 03:13:51;;;;;;;;;;;;;;;;;;4220228;28;1992;-60
2022/04/05 03:16:12;;;;;;;;;;;;;;;;;;4219286;28;1024;-60
2022/04/05 03:18:33;;;;;;;;;;;;;;;;;;4218926;28;1074;-62
2022/04/05 03:20:54;;;;;;;;;;;;;;;;;;4219201;28;971;-59
2022/04/05 03:23:14;;;;;;;;;;;;;;;;;;4218273;28;1132;-60
2022/04/05 03:25:35;;;;;;;;;;;;;;;;;;4220158;28;949;-61
2022/04/05 03:27:55;;;;;;;;;;;;;;;;;;4220135;28;964;-59
2022/04/05 03:30:19;;;;;;;;;;;;;;;;;;4218843;28;1098;-59
2022/04/05 03:32:40;;;;;;;;;;;;;;;;;;4218920;28;1008;-60
2022/04/05 03:35:01;;;;;;;;;;;;;;;;;;4220266;28;1996;-61
2022/04/05 03:37:22;;;;;;;;;;;;;;;;;;4218540;28;990;-60
2022/04/05 03:39:43;;;;;;;;;;;;;;;;;;4218512;28;1045;-60
2022/04/05 03:42:04;;;;;;;;;;;;;;;;;;4218359;28;1082;-60
2022/04/05 03:44:24;;;;;;;;;;;;;;;;;;4218343;28;1199;-60
2022/04/05 03:46:45;;;;;;;;;;;;;;;;;;4218550;28;998;-60
2022/04/05 03:49:06;;;;;;;;;;;;;;;;;;4218443;28;970;-61
2022/04/05 03:51:28;;;;;;;;;;;;;;;;;;4218614;28;1227;-59
2022/04/05 03:53:54;;;;;;;;;;;;;;;;;;4219903;28;1996;-60
2022/04/05 03:56:14;;;;;;;;;;;;;;;;;;4218383;28;1043;-60
2022/04/05 03:58:35;;;;;;;;;;;;;;;;;;4218606;28;1040;-60
2022/04/05 04:00:56;;;;;;;;;;;;;;;;;;4218579;28;1194;-60
2022/04/05 04:03:22;;;;;;;;;;;;;;;;;;4218420;28;1019;-60
2022/04/05 04:05:45;;;;;;;;;;;;;;;;;;4218295;28;1007;-60
2022/04/05 04:08:07;;;;;;;;;;;;;;;;;;4204157;28;1193;-60
2022/04/05 04:10:28;;;;;;;;;;;;;;;;;;4218463;28;1180;-59
2022/04/05 04:12:52;;;;;;;;;;;;;;;;;;4219778;28;1080;-60
2022/04/05 04:15:14;;;;;;;;;;;;;;;;;;4218195;28;1905;-60
2022/04/05 04:17:35;;;;;;;;;;;;;;;;;;4218233;28;1072;-62
2022/04/05 04:19:56;;;;;;;;;;;;;;;;;;4218090;28;973;-60
2022/04/05 04:22:17;;;;;;;;;;;;;;;;;;4218675;28;988;-60
2022/04/05 04:24:37;;;;;;;;;;;;;;;;;;4219941;28;845;-60
2022/04/05 04:26:58;;;;;;;;;;;;;;;;;;4219261;28;894;-60
2022/04/05 04:29:19;;;;;;;;;;;;;;;;;;4219426;28;1162;-60
2022/04/05 04:31:41;;;;;;;;;;;;;;;;;;4218476;28;958;-60
2022/04/05 04:34:01;;;;;;;;;;;;;;;;;;4219539;28;1918;-60
2022/04/05 04:36:22;;;;;;;;;;;;;;;;;;4219549;28;1736;-60
2022/04/05 04:38:43;;;;;;;;;;;;;;;;;;4222875;28;833;-60
2022/04/05 04:41:04;;;;;;;;;;;;;;;;;;4222385;28;1020;-60
2022/04/05 04:43:26;;;;;;;;;;;;;;;;;;4221960;28;1185;-60
2022/04/05 04:45:47;;;;;;;;;;;;;;;;;;4222215;28;995;-60
2022/04/05 04:48:08;;;;;;;;;;;;;;;;;;4222212;28;948;-60
2022/04/05 04:50:28;;;;;;;;;;;;;;;;;;4222006;28;1160;-60
2022/04/05 04:52:49;;;;;;;;;;;;;;;;;;4222155;28;940;-60
2022/04/05 04:55:10;;;;;;;;;;;;;;;;;;4221897;28;1918;-60
2022/04/05 04:57:30;;;;;;;;;;;;;;;;;;4222171;28;832;-61
2022/04/05 04:59:51;;;;;;;;;;;;;;;;;;4221890;28;1052;-60
2022/04/05 05:02:12;;;;;;;;;;;;;;;;;;4221812;28;1173;-60
2022/04/05 05:04:32;;;;;;;;;;;;;;;;;;4221769;28;1046;-60
2022/04/05 05:06:53;;;;;;;;;;;;;;;;;;4220632;28;1059;-60
2022/04/05 05:09:14;;;;;;;;;;;;;;;;;;4222131;28;1021;-60
2022/04/05 05:11:34;;;;;;;;;;;;;;;;;;4221783;28;1057;-60
2022/04/05 05:13:55;;;;;;;;;;;;;;;;;;4221732;28;1971;-59
2022/04/05 05:16:16;;;;;;;;;;;;;;;;;;4221771;28;1194;-60
2022/04/05 05:18:37;;;;;;;;;;;;;;;;;;4222063;28;1103;-61
2022/04/05 05:20:58;;;;;;;;;;;;;;;;;;4220599;28;1006;-60
2022/04/05 05:23:18;;;;;;;;;;;;;;;;;;4222000;28;1187;-60
2022/04/05 05:25:39;;;;;;;;;;;;;;;;;;4221810;28;1188;-60
2022/04/05 05:28:00;;;;;;;;;;;;;;;;;;4220648;28;969;-60
2022/04/05 05:30:22;;;;;;;;;;;;;;;;;;4221911;28;1206;-60
2022/04/05 05:32:43;;;;;;;;;;;;;;;;;;4221818;28;1118;-59
2022/04/05 05:35:04;;;;;;;;;;;;;;;;;;4215707;28;2015;-59
2022/04/05 05:37:24;;;;;;;;;;;;;;;;;;4217453;28;1097;-59
2022/04/05 05:39:45;;;;;;;;;;;;;;;;;;4219649;28;1525;-60
2022/04/05 05:42:05;;;;;;;;;;;;;;;;;;4220570;28;1681;-60
2022/04/05 05:44:26;;;;;;;;;;;;;;;;;;4222024;28;880;-61
2022/04/05 05:46:47;;;;;;;;;;;;;;;;;;4211682;28;1530;-60
2022/04/05 05:49:08;;;;;;;;;;;;;;;;;;4221243;28;1032;-60
2022/04/05 05:51:29;;;;;;;;;;;;;;;;;;4205288;28;1048;-61
2022/04/05 05:53:50;;;;;;;;;;;;;;;;;;4205266;28;1004;-60
2022/04/05 05:56:10;;;;;;;;;;;;;;;;;;4204357;28;1965;-60
2022/04/05 05:58:31;;;;;;;;;;;;;;;;;;4204831;28;850;-60
2022/04/05 06:00:51;;;;;;;;;;;;;;;;;;4208434;28;1669;-60
2022/04/05 06:03:12;;;;;;;;;;;;;;;;;;4215218;28;2272;-60
2022/04/05 06:05:33;;;;;;;;;;;;;;;;;;4221135;28;1252;-60
2022/04/05 06:07:54;;;;;;;;;;;;;;;;;;4221219;28;1008;-60
2022/04/05 06:10:14;;;;;;;;;;;;;;;;;;4221344;28;853;-60
2022/04/05 06:12:35;;;;;;;;;;;;;;;;;;4221142;28;1261;-60
2022/04/05 06:14:56;;;;;;;;;;;;;;;;;;4221154;28;1901;-60
2022/04/05 06:17:17;;;;;;;;;;;;;;;;;;4220418;28;1123;-60
2022/04/05 06:19:38;;;;;;;;;;;;;;;;;;4221233;28;1208;-60
2022/04/05 06:21:59;;;;;;;;;;;;;;;;;;4221156;28;1132;-60
2022/04/05 06:24:20;;;;;;;;;;;;;;;;;;4220790;28;925;-61
2022/04/05 06:26:41;;;;;;;;;;;;;;;;;;4220878;28;1023;-60
2022/04/05 06:29:01;;;;;;;;;;;;;;;;;;4220354;28;1703;-60
2022/04/05 06:31:22;;;;;;;;;;;;;;;;;;4220472;28;1076;-61
2022/04/05 06:34:13;;;;;;;;;;;;;;;;;;4200965;28;1311;-61
2022/04/05 06:36:34;;;;;;;;;;;;;;;;;;4200280;28;1225;-61
2022/04/05 06:38:54;;;;;;;;;;;;;;;;;;4188262;28;1032;-62
2022/04/05 06:41:15;;;;;;;;;;;;;;;;;;4184173;28;1156;-61
2022/04/05 06:43:36;;;;;;;;;;;;;;;;;;4183722;28;954;-61
2022/04/05 06:45:56;;;;;;;;;;;;;;;;;;4183917;28;1271;-61
2022/04/05 06:48:17;;;;;;;;;;;;;;;;;;4190831;28;2329;-61
2022/04/05 06:50:38;;;;;;;;;;;;;;;;;;4197393;28;1016;-62
2022/04/05 06:52:58;;;;;;;;;;;;;;;;;;4200134;28;1979;-61
2022/04/05 06:55:19;;;;;;;;;;;;;;;;;;4200392;28;1023;-61
2022/04/05 06:57:40;;;;;;;;;;;;;;;;;;4199871;28;2171;-61
2022/04/05 07:00:00;;;;;;;;;;;;;;;;;;4197250;28;1190;-61
2022/04/05 07:02:22;;;;;;;;;;;;;;;;;;4183999;28;889;-61
2022/04/05 07:04:43;;;;;;;;;;;;;;;;;;4183930;28;1044;-61
2022/04/05 07:07:03;;;;;;;;;;;;;;;;;;4184315;28;1367;-60
2022/04/05 07:09:24;;;;;;;;;;;;;;;;;;4195569;28;3005;-60
2022/04/05 07:11:45;;;;;;;;;;;;;;;;;;4198677;28;1183;-60
2022/04/05 07:14:06;;;;;;;;;;;;;;;;;;4195256;28;1937;-61
2022/04/05 07:16:27;;;;;;;;;;;;;;;;;;4198607;28;1546;-62
2022/04/05 07:18:49;;;;;;;;;;;;;;;;;;4183173;28;1584;-63
2022/04/05 07:21:11;;;;;;;;;;;;;;;;;;4181619;28;988;-62
2022/04/05 07:23:31;;;;;;;;;;;;;;;;;;4182877;28;1215;-63
2022/04/05 07:25:52;;;;;;;;;;;;;;;;;;4183517;28;786;-62
2022/04/05 07:28:13;;;;;;;;;;;;;;;;;;4182948;28;1192;-61
2022/04/05 07:30:34;;;;;;;;;;;;;;;;;;4183543;28;938;-61
2022/04/05 07:32:55;;;;;;;;;;;;;;;;;;4182826;28;1914;-61
2022/04/05 07:35:17;;;;;;;;;;;;;;;;;;4196136;28;986;-60
2022/04/05 07:37:38;;;;;;;;;;;;;;;;;;4182834;28;837;-61
2022/04/05 07:39:59;;;;;;;;;;;;;;;;;;4182746;28;978;-60
2022/04/05 07:42:20;;;;;;;;;;;;;;;;;;4183104;28;978;-61
2022/04/05 07:44:41;;;;;;;;;;;;;;;;;;4176742;28;978;-60
2022/04/05 07:47:02;;;;;;;;;;;;;;;;;;4171646;28;1049;-61
2022/04/05 07:49:22;;;;;;;;;;;;;;;;;;4171915;28;938;-60
2022/04/05 07:51:43;;;;;;;;;;;;;;;;;;4171896;28;925;-61
2022/04/05 07:54:04;;;;;;;;;;;;;;;;;;4177537;28;1918;-62
2022/04/05 07:56:25;;;;;;;;;;;;;;;;;;4188384;28;929;-61
2022/04/05 07:58:45;;;;;;;;;;;;;;;;;;4187966;28;1204;-61
2022/04/05 08:01:06;;;;;;;;;;;;;;;;;;4188298;28;970;-61
2022/04/05 08:03:28;;;;;;;;;;;;;;;;;;4188030;28;1396;-61
2022/04/05 08:05:48;;;;;;;;;;;;;;;;;;4187859;28;1334;-61
2022/04/05 08:08:09;;;;;;;;;;;;;;;;;;4188280;28;1124;-62
2022/04/05 08:10:30;;;;;;;;;;;;;;;;;;4188089;28;1014;-62
2022/04/05 08:12:51;;;;;;;;;;;;;;;;;;4171693;28;1913;-61
2022/04/05 08:15:12;;;;;;;;;;;;;;;;;;4178388;28;3250;-61
2022/04/05 08:17:33;;;;;;;;;;;;;;;;;;4185776;28;1226;-61
2022/04/05 08:19:53;;;;;;;;;;;;;;;;;;4185899;28;1109;-62
2022/04/05 08:22:14;;;;;;;;;;;;;;;;;;4169520;28;1402;-61
2022/04/05 08:24:35;;;;;;;;;;;;;;;;;;4172196;28;1037;-61
2022/04/05 08:26:56;;;;;;;;;;;;;;;;;;4182939;28;1701;-61
2022/04/05 08:29:16;;;;;;;;;;;;;;;;;;4181175;28;2482;-61
2022/04/05 08:31:37;;;;;;;;;;;;;;;;;;4182791;28;1408;-61
2022/04/05 08:33:58;;;;;;;;;;;;;;;;;;4187625;28;1914;-60
2022/04/05 08:36:19;;;;;;;;;;;;;;;;;;4187830;28;1018;-60
2022/04/05 08:38:40;;;;;;;;;;;;;;;;;;4186482;28;1603;-60
2022/04/05 08:41:01;;;;;;;;;;;;;;;;;;4173140;28;1302;-61
2022/04/05 08:43:22;;;;;;;;;;;;;;;;;;4173562;28;1573;-60
2022/04/05 08:45:42;;;;;;;;;;;;;;;;;;4187661;28;871;-60
2022/04/05 08:48:05;;;;;;;;;;;;;;;;;;4187108;28;1755;-60
2022/04/05 08:50:26;;;;;;;;;;;;;;;;;;4187324;28;1229;-60
2022/04/05 08:52:46;;;;;;;;;;;;;;;;;;4187453;28;1044;-60
2022/04/05 08:55:07;;;;;;;;;;;;;;;;;;4187523;28;1109;-60
2022/04/05 08:57:28;;;;;;;;;;;;;;;;;;4186277;28;1199;-60
2022/04/05 08:59:48;;;;;;;;;;;;;;;;;;4187327;28;1107;-60
2022/04/05 09:02:09;;;;;;;;;;;;;;;;;;4184174;28;4142;-60
2022/04/05 09:04:31;;;;;;;;;;;;;;;;;;4179050;28;930;-60
2022/04/05 09:06:51;;;;;;;;;;;;;;;;;;4187314;28;1031;-61
2022/04/05 09:09:12;;;;;;;;;;;;;;;;;;4171311;28;950;-60
2022/04/05 09:11:33;;;;;;;;;;;;;;;;;;4170364;28;2216;-60
2022/04/05 09:13:54;;;;;;;;;;;;;;;;;;4181878;28;1980;-60
2022/04/05 09:16:15;;;;;;;;;;;;;;;;;;4187326;28;1200;-60
2022/04/05 09:18:36;;;;;;;;;;;;;;;;;;4186802;28;1251;-60
2022/04/05 09:20:57;;;;;;;;;;;;;;;;;;4186941;28;1021;-60
2022/04/05 09:23:18;;;;;;;;;;;;;;;;;;4181037;28;2226;-60
2022/04/05 09:25:40;;;;;;;;;;;;;;;;;;4181175;28;2846;-61
2022/04/05 09:28:03;;;;;;;;;;;;;;;;;;4185488;28;1326;-60
2022/04/05 09:30:24;;;;;;;;;;;;;;;;;;4168281;28;1180;-60
2022/04/05 09:32:48;;;;;;;;;;;;;;;;;;4168119;28;1243;-60
2022/04/05 09:35:08;;;;;;;;;;;;;;;;;;4184475;28;2075;-61
2022/04/05 09:37:29;;;;;;;;;;;;;;;;;;4184308;28;2046;-60
2022/04/05 09:39:50;;;;;;;;;;;;;;;;;;4186527;28;2273;-60
2022/04/05 09:42:11;;;;;;;;;;;;;;;;;;4170245;28;1106;-60
2022/04/05 09:44:32;;;;;;;;;;;;;;;;;;4182145;28;1341;-60
2022/04/05 09:46:52;;;;;;;;;;;;;;;;;;4186565;28;1162;-60
2022/04/05 09:49:13;;;;;;;;;;;;;;;;;;4186144;28;980;-61
2022/04/05 09:51:34;;;;;;;;;;;;;;;;;;4186901;28;1267;-60
2022/04/05 09:53:57;;;;;;;;;;;;;;;;;;4186540;28;1906;-60
2022/04/05 09:56:17;;;;;;;;;;;;;;;;;;4186756;28;1002;-60
2022/04/05 09:58:38;;;;;;;;;;;;;;;;;;4185701;28;1256;-60
2022/04/05 10:00:59;;;;;;;;;;;;;;;;;;4186391;28;1113;-60
2022/04/05 10:03:19;;;;;;;;;;;;;;;;;;4186636;28;986;-62
2022/04/05 10:05:40;;;;;;;;;;;;;;;;;;4169958;28;2551;-60
2022/04/05 10:08:01;;;;;;;;;;;;;;;;;;4169592;28;966;-60
2022/04/05 10:10:22;;;;;;;;;;;;;;;;;;4169333;28;2673;-60
2022/04/05 10:12:43;;;;;;;;;;;;;;;;;;4168574;28;1226;-60
2022/04/05 10:15:04;;;;;;;;;;;;;;;;;;4169768;28;1918;-60
2022/04/05 10:17:25;;;;;;;;;;;;;;;;;;4169483;28;986;-60
2022/04/05 10:19:45;;;;;;;;;;;;;;;;;;4169585;28;1253;-60
2022/04/05 10:22:06;;;;;;;;;;;;;;;;;;4169501;28;1208;-61
2022/04/05 10:24:28;;;;;;;;;;;;;;;;;;4181965;28;1749;-60
2022/04/05 10:26:49;;;;;;;;;;;;;;;;;;4186207;28;960;-60
2022/04/05 10:29:09;;;;;;;;;;;;;;;;;;4185919;28;1203;-60
2022/04/05 10:31:30;;;;;;;;;;;;;;;;;;4186214;28;1390;-60
2022/04/05 10:33:51;;;;;;;;;;;;;;;;;;4186068;28;1906;-60
2022/04/05 10:36:12;;;;;;;;;;;;;;;;;;4186588;28;1121;-60
2022/04/05 10:38:33;;;;;;;;;;;;;;;;;;4186112;28;1168;-60
2022/04/05 10:40:53;;;;;;;;;;;;;;;;;;4185922;28;904;-60
2022/04/05 10:43:14;;;;;;;;;;;;;;;;;;4184819;28;1260;-61
2022/04/05 10:45:35;;;;;;;;;;;;;;;;;;4184893;28;1558;-60
2022/04/05 10:47:56;;;;;;;;;;;;;;;;;;4185096;28;894;-60
2022/04/05 10:50:17;;;;;;;;;;;;;;;;;;4185488;28;1649;-60
2022/04/05 10:52:38;;;;;;;;;;;;;;;;;;4186011;28;1214;-60
2022/04/05 10:54:59;;;;;;;;;;;;;;;;;;4176074;28;1971;-61
2022/04/05 10:57:21;;;;;;;;;;;;;;;;;;4185935;28;1115;-60
2022/04/05 10:59:42;;;;;;;;;;;;;;;;;;4185588;28;1089;-60
2022/04/05 11:02:03;;;;;;;;;;;;;;;;;;4185850;28;970;-60
2022/04/05 11:04:24;;;;;;;;;;;;;;;;;;4185873;28;1310;-60
2022/04/05 11:06:44;;;;;;;;;;;;;;;;;;4185563;28;1851;-60
2022/04/05 11:09:05;;;;;;;;;;;;;;;;;;4185321;28;933;-60
2022/04/05 11:11:26;;;;;;;;;;;;;;;;;;4185270;28;1255;-60
2022/04/05 11:13:50;;;;;;;;;;;;;;;;;;4185088;28;1169;-60
2022/04/05 11:16:10;;;;;;;;;;;;;;;;;;4185397;28;989;-59
2022/04/05 11:18:33;;;;;;;;;;;;;;;;;;4181371;28;3934;-60
2022/04/05 11:20:54;;;;;;;;;;;;;;;;;;4187798;28;1375;-60
2022/04/05 11:23:14;;;;;;;;;;;;;;;;;;4187423;28;1272;-60
2022/04/05 11:25:35;;;;;;;;;;;;;;;;;;4187793;28;1008;-60
2022/04/05 11:27:56;;;;;;;;;;;;;;;;;;4187254;28;999;-60
2022/04/05 11:30:17;;;;;;;;;;;;;;;;;;4177014;28;1923;-60
2022/04/05 11:32:37;;;;;;;;;;;;;;;;;;4187221;28;1278;-60
2022/04/05 11:35:00;;;;;;;;;;;;;;;;;;4200189;28;1909;-60
2022/04/05 11:37:20;;;;;;;;;;;;;;;;;;4188065;28;990;-60
2022/04/05 11:39:42;;;;;;;;;;;;;;;;;;4187833;28;1621;-60
2022/04/05 11:42:03;;;;;;;;;;;;;;;;;;4187944;28;1280;-60
2022/04/05 11:44:23;;;;;;;;;;;;;;;;;;4187413;28;1388;-60
2022/04/05 11:46:44;;;;;;;;;;;;;;;;;;4187494;28;1273;-60
2022/04/05 11:49:05;;;;;;;;;;;;;;;;;;4187396;28;1227;-60
2022/04/05 11:51:26;;;;;;;;;;;;;;;;;;4187753;28;1606;-59
2022/04/05 11:53:47;;;;;;;;;;;;;;;;;;4187948;28;984;-59
2022/04/05 11:56:07;;;;;;;;;;;;;;;;;;4187852;28;1914;-61
2022/04/05 11:58:30;;;;;;;;;;;;;;;;;;4187364;28;1224;-59
2022/04/05 12:00:51;;;;;;;;;;;;;;;;;;4187666;28;1268;-60
2022/04/05 12:03:11;;;;;;;;;;;;;;;;;;4187662;28;1436;-59
2022/04/05 12:05:33;;;;;;;;;;;;;;;;;;4187548;28;970;-59
2022/04/05 12:07:53;;;;;;;;;;;;;;;;;;4186178;28;1080;-59
2022/04/05 12:10:14;;;;;;;;;;;;;;;;;;4187018;28;1761;-59
2022/04/05 12:12:35;;;;;;;;;;;;;;;;;;4179245;28;1328;-59
2022/04/05 12:14:56;;;;;;;;;;;;;;;;;;4185909;28;1985;-59
2022/04/05 12:17:16;;;;;;;;;;;;;;;;;;4186863;28;2101;-59
2022/04/05 12:19:37;;;;;;;;;;;;;;;;;;4187248;28;1229;-59
2022/04/05 12:22:00;;;;;;;;;;;;;;;;;;4187103;28;1030;-59
2022/04/05 12:24:21;;;;;;;;;;;;;;;;;;4184442;28;1488;-60
2022/04/05 12:26:42;;;;;;;;;;;;;;;;;;4182019;28;1566;-60
2022/04/05 12:29:02;;;;;;;;;;;;;;;;;;4186939;28;1286;-60
2022/04/05 12:31:23;;;;;;;;;;;;;;;;;;4187154;28;1022;-59
2022/04/05 12:33:44;;;;;;;;;;;;;;;;;;4187255;28;1315;-59
2022/04/05 12:36:05;;;;;;;;;;;;;;;;;;4187086;28;1984;-60
2022/04/05 12:38:25;;;;;;;;;;;;;;;;;;4187133;28;1197;-59
2022/04/05 12:40:46;;;;;;;;;;;;;;;;;;4185104;28;2221;-60
2022/04/05 12:43:07;;;;;;;;;;;;;;;;;;4187314;28;1117;-59
2022/04/05 12:45:29;;;;;;;;;;;;;;;;;;4187218;28;1072;-60
2022/04/05 12:47:50;;;;;;;;;;;;;;;;;;4187362;28;1123;-59
2022/04/05 12:50:10;;;;;;;;;;;;;;;;;;4187220;28;2093;-59
2022/04/05 12:52:32;;;;;;;;;;;;;;;;;;4186853;28;1004;-60
2022/04/05 12:54:52;;;;;;;;;;;;;;;;;;4187197;28;1989;-60
2022/04/05 12:57:13;;;;;;;;;;;;;;;;;;4187472;28;1087;-60
2022/04/05 12:59:34;;;;;;;;;;;;;;;;;;4186905;28;1662;-60
2022/04/05 13:01:55;;;;;;;;;;;;;;;;;;4186957;28;2122;-60
2022/04/05 13:04:16;;;;;;;;;;;;;;;;;;4187441;28;990;-60
2022/04/05 13:06:37;;;;;;;;;;;;;;;;;;4187367;28;942;-60
2022/04/05 13:08:58;;;;;;;;;;;;;;;;;;4187048;28;1219;-60
2022/04/05 13:11:19;;;;;;;;;;;;;;;;;;4186773;28;1105;-60
2022/04/05 13:13:41;;;;;;;;;;;;;;;;;;4186213;28;1373;-61
2022/04/05 13:16:01;;;;;;;;;;;;;;;;;;4187063;28;1910;-59
2022/04/05 13:18:23;;;;;;;;;;;;;;;;;;4186841;28;892;-60
2022/04/05 13:20:43;;;;;;;;;;;;;;;;;;4186606;28;973;-59
2022/04/05 13:23:04;;;;;;;;;;;;;;;;;;4186678;28;1721;-60
2022/04/05 13:25:25;;;;;;;;;;;;;;;;;;4186702;28;927;-61
2022/04/05 13:27:45;;;;;;;;;;;;;;;;;;4186549;28;1006;-59
2022/04/05 13:30:06;;;;;;;;;;;;;;;;;;4169950;28;1172;-60
2022/04/05 13:32:27;;;;;;;;;;;;;;;;;;4170048;28;1078;-59
2022/04/05 13:34:48;;;;;;;;;;;;;;;;;;4169996;28;1081;-59
2022/04/05 13:37:11;;;;;;;;;;;;;;;;;;4169977;28;970;-59
2022/04/05 13:39:33;;;;;;;;;;;;;;;;;;4184385;28;3611;-60
2022/04/05 13:41:54;;;;;;;;;;;;;;;;;;4178505;28;1145;-59
2022/04/05 13:44:15;;;;;;;;;;;;;;;;;;4179824;28;1191;-60
2022/04/05 13:46:36;;;;;;;;;;;;;;;;;;4186722;28;961;-59
2022/04/05 13:48:57;;;;;;;;;;;;;;;;;;4186335;28;1119;-60
2022/04/05 13:51:18;;;;;;;;;;;;;;;;;;4186249;28;1560;-62
2022/04/05 13:53:38;;;;;;;;;;;;;;;;;;4186473;28;1052;-60
2022/04/05 13:56:00;;;;;;;;;;;;;;;;;;4186608;28;1979;-60
2022/04/05 13:58:21;;;;;;;;;;;;;;;;;;4186185;28;1389;-60
2022/04/05 14:00:42;;;;;;;;;;;;;;;;;;4186730;28;954;-60
2022/04/05 14:03:03;;;;;;;;;;;;;;;;;;4185379;28;1021;-60
2022/04/05 14:05:23;;;;;;;;;;;;;;;;;;4169977;28;972;-60
2022/04/05 14:07:44;;;;;;;;;;;;;;;;;;4178038;28;1132;-61
2022/04/05 14:10:05;;;;;;;;;;;;;;;;;;4186046;28;1145;-62
2022/04/05 14:12:26;;;;;;;;;;;;;;;;;;4180746;28;2089;-60
2022/04/05 14:14:47;;;;;;;;;;;;;;;;;;4181007;28;2790;-61
2022/04/05 14:17:08;;;;;;;;;;;;;;;;;;4183604;28;1318;-60
2022/04/05 14:19:28;;;;;;;;;;;;;;;;;;4184208;28;857;-61
2022/04/05 14:21:49;;;;;;;;;;;;;;;;;;4184659;28;975;-60
2022/04/05 14:24:10;;;;;;;;;;;;;;;;;;4185893;28;1314;-60
2022/04/05 14:26:31;;;;;;;;;;;;;;;;;;4183801;28;1170;-60
2022/04/05 14:28:51;;;;;;;;;;;;;;;;;;4185681;28;1167;-61
2022/04/05 14:31:12;;;;;;;;;;;;;;;;;;4185624;28;1222;-61
2022/04/05 14:33:33;;;;;;;;;;;;;;;;;;4182480;28;3047;-61
2022/04/05 14:35:54;;;;;;;;;;;;;;;;;;4183398;28;1974;-60
2022/04/05 14:38:15;;;;;;;;;;;;;;;;;;4185842;28;1001;-61
2022/04/05 14:40:36;;;;;;;;;;;;;;;;;;4185822;28;1451;-60
2022/04/05 14:42:56;;;;;;;;;;;;;;;;;;4178990;28;1455;-60
2022/04/05 14:45:17;;;;;;;;;;;;;;;;;;4182560;28;1929;-61
2022/04/05 14:47:38;;;;;;;;;;;;;;;;;;4167521;28;1123;-60
2022/04/05 14:49:59;;;;;;;;;;;;;;;;;;4164997;28;1198;-60
2022/04/05 14:52:20;;;;;;;;;;;;;;;;;;4175163;28;1328;-60
2022/04/05 14:54:41;;;;;;;;;;;;;;;;;;4177401;28;3177;-60
2022/04/05 14:57:03;;;;;;;;;;;;;;;;;;4169147;28;2119;-60
2022/04/05 14:59:24;;;;;;;;;;;;;;;;;;4172751;28;2527;-60
2022/04/05 15:01:44;;;;;;;;;;;;;;;;;;4180775;28;2634;-60
2022/04/05 15:04:05;;;;;;;;;;;;;;;;;;4186500;28;1509;-61
2022/04/05 15:06:26;;;;;;;;;;;;;;;;;;4187456;28;1554;-60
2022/04/05 15:08:47;;;;;;;;;;;;;;;;;;4188091;28;965;-61
2022/04/05 15:11:07;;;;;;;;;;;;;;;;;;4187981;28;1005;-60
2022/04/05 15:13:29;;;;;;;;;;;;;;;;;;4188581;28;1230;-60
2022/04/05 15:15:50;;;;;;;;;;;;;;;;;;4188452;28;1930;-61
2022/04/05 15:18:11;;;;;;;;;;;;;;;;;;4188869;28;969;-60
2022/04/05 15:20:31;;;;;;;;;;;;;;;;;;4188548;28;908;-60
2022/04/05 15:22:52;;;;;;;;;;;;;;;;;;4188602;28;1036;-60
2022/04/05 15:25:13;;;;;;;;;;;;;;;;;;4171551;28;1025;-60
2022/04/05 15:27:34;;;;;;;;;;;;;;;;;;4171923;28;989;-60
2022/04/05 15:29:56;;;;;;;;;;;;;;;;;;4183153;28;1840;-61
2022/04/05 15:32:17;;;;;;;;;;;;;;;;;;4183143;28;1211;-61
2022/04/05 15:34:39;;;;;;;;;;;;;;;;;;4188043;28;1009;-60
2022/04/05 15:37:00;;;;;;;;;;;;;;;;;;4183190;28;1945;-60
2022/04/05 15:39:20;;;;;;;;;;;;;;;;;;4171718;28;2161;-61
2022/04/05 15:41:41;;;;;;;;;;;;;;;;;;4178751;28;1016;-60
2022/04/05 15:44:02;;;;;;;;;;;;;;;;;;4187946;28;1388;-60
2022/04/05 15:46:23;;;;;;;;;;;;;;;;;;4188190;28;990;-60
2022/04/05 15:48:44;;;;;;;;;;;;;;;;;;4188147;28;1021;-60
2022/04/05 15:51:04;;;;;;;;;;;;;;;;;;4188131;28;905;-60
2022/04/05 15:53:25;;;;;;;;;;;;;;;;;;4185570;28;1625;-61
2022/04/05 15:55:46;;;;;;;;;;;;;;;;;;4181253;28;2125;-60
2022/04/05 15:58:07;;;;;;;;;;;;;;;;;;4179783;28;1650;-60
2022/04/05 16:00:28;;;;;;;;;;;;;;;;;;4187076;28;952;-60
2022/04/05 16:02:50;;;;;;;;;;;;;;;;;;4186688;28;1238;-60
2022/04/05 16:05:10;;;;;;;;;;;;;;;;;;4186514;28;989;-60
2022/04/05 16:07:31;;;;;;;;;;;;;;;;;;4186933;28;1184;-60
2022/04/05 16:09:52;;;;;;;;;;;;;;;;;;4186932;28;969;-61
2022/04/05 16:12:13;;;;;;;;;;;;;;;;;;4186434;28;1090;-59
2022/04/05 16:14:33;;;;;;;;;;;;;;;;;;4186497;28;1506;-60
2022/04/05 16:16:54;;;;;;;;;;;;;;;;;;4186848;28;1917;-60
2022/04/05 16:19:15;;;;;;;;;;;;;;;;;;4186620;28;1112;-60
2022/04/05 16:21:36;;;;;;;;;;;;;;;;;;4186569;28;962;-60
2022/04/05 16:23:57;;;;;;;;;;;;;;;;;;4186491;28;1660;-59